sensor_id;sensor_type;location;lat;lon;timestamp;P1;durP1;ratioP1;P2;durP2;ratioP2
64932;SDS011;51446;53.850;10.662;2023-12-28T00:00:33;10.53;;;5.53;;
64932;SDS011;51446;53.850;10.662;2023-12-28T00:02:58;7.07;;;5.10;;
64932;SDS011;51446;53.850;10.662;2023-12-28T00:05:23;7.37;;;4.97;;
64932;SDS011;51446;53.850;10.662;2023-12-28T00:07:48;9.53;;;5.30;;
64932;SDS011;51446;53.850;10.662;2023-12-28T00:10:21;10.13;;;5.50;;
64932;SDS011;51446;53.850;10.662;2023-12-28T00:12:46;10.77;;;5.53;;
64932;SDS011;51446;53.850;10.662;2023-12-28T00:15:12;9.67;;;5.03;;
64932;SDS011;51446;53.850;10.662;2023-12-28T00:17:37;7.10;;;5.30;;
64932;SDS011;51446;53.850;10.662;2023-12-28T00:20:02;12.70;;;5.20;;
64932;SDS011;51446;53.850;10.662;2023-12-28T00:22:28;11.37;;;5.43;;
64932;SDS011;51446;53.850;10.662;2023-12-28T00:24:53;7.80;;;5.20;;
64932;SDS011;51446;53.850;10.662;2023-12-28T00:27:18;8.67;;;5.37;;
64932;SDS011;51446;53.850;10.662;2023-12-28T00:29:43;11.90;;;5.30;;
64932;SDS011;51446;53.850;10.662;2023-12-28T00:32:09;7.13;;;5.30;;
64932;SDS011;51446;53.850;10.662;2023-12-28T00:34:34;7.80;;;4.70;;
64932;SDS011;51446;53.850;10.662;2023-12-28T00:37:01;6.55;;;4.53;;
64932;SDS011;51446;53.850;10.662;2023-12-28T00:39:26;6.50;;;4.97;;
64932;SDS011;51446;53.850;10.662;2023-12-28T00:41:51;8.47;;;5.10;;
64932;SDS011;51446;53.850;10.662;2023-12-28T00:44:17;10.77;;;4.90;;
64932;SDS011;51446;53.850;10.662;2023-12-28T00:46:42;6.87;;;4.30;;
64932;SDS011;51446;53.850;10.662;2023-12-28T00:49:07;5.37;;;4.17;;
64932;SDS011;51446;53.850;10.662;2023-12-28T00:51:33;9.23;;;4.75;;
64932;SDS011;51446;53.850;10.662;2023-12-28T00:53:58;8.48;;;4.28;;
64932;SDS011;51446;53.850;10.662;2023-12-28T00:56:23;10.67;;;4.33;;
64932;SDS011;51446;53.850;10.662;2023-12-28T00:58:49;6.73;;;3.97;;
64932;SDS011;51446;53.850;10.662;2023-12-28T01:01:14;5.57;;;3.70;;
64932;SDS011;51446;53.850;10.662;2023-12-28T01:03:40;5.13;;;4.00;;
64932;SDS011;51446;53.850;10.662;2023-12-28T01:06:05;5.07;;;3.70;;
64932;SDS011;51446;53.850;10.662;2023-12-28T01:08:31;4.50;;;3.20;;
64932;SDS011;51446;53.850;10.662;2023-12-28T01:10:58;4.50;;;3.58;;
64932;SDS011;51446;53.850;10.662;2023-12-28T01:13:24;3.67;;;3.17;;
64932;SDS011;51446;53.850;10.662;2023-12-28T01:15:49;6.97;;;3.33;;
64932;SDS011;51446;53.850;10.662;2023-12-28T01:18:14;7.30;;;3.20;;
64932;SDS011;51446;53.850;10.662;2023-12-28T01:20:40;5.53;;;3.30;;
64932;SDS011;51446;53.850;10.662;2023-12-28T01:23:05;5.33;;;3.40;;
64932;SDS011;51446;53.850;10.662;2023-12-28T01:25:30;7.40;;;3.50;;
64932;SDS011;51446;53.850;10.662;2023-12-28T01:27:55;5.17;;;3.30;;
64932;SDS011;51446;53.850;10.662;2023-12-28T01:30:21;3.63;;;3.10;;
64932;SDS011;51446;53.850;10.662;2023-12-28T01:32:46;5.23;;;2.70;;
64932;SDS011;51446;53.850;10.662;2023-12-28T01:35:11;6.30;;;3.57;;
64932;SDS011;51446;53.850;10.662;2023-12-28T01:37:36;5.57;;;3.27;;
64932;SDS011;51446;53.850;10.662;2023-12-28T01:40:02;6.47;;;3.40;;
64932;SDS011;51446;53.850;10.662;2023-12-28T01:42:27;4.68;;;3.10;;
64932;SDS011;51446;53.850;10.662;2023-12-28T01:44:55;5.07;;;3.00;;
64932;SDS011;51446;53.850;10.662;2023-12-28T01:47:20;5.07;;;3.23;;
64932;SDS011;51446;53.850;10.662;2023-12-28T01:49:45;6.03;;;3.30;;
64932;SDS011;51446;53.850;10.662;2023-12-28T01:52:11;5.17;;;3.20;;
64932;SDS011;51446;53.850;10.662;2023-12-28T01:54:36;3.70;;;2.77;;
64932;SDS011;51446;53.850;10.662;2023-12-28T01:57:02;7.50;;;3.08;;
64932;SDS011;51446;53.850;10.662;2023-12-28T01:59:29;5.00;;;3.13;;
64932;SDS011;51446;53.850;10.662;2023-12-28T02:01:55;5.75;;;2.88;;
64932;SDS011;51446;53.850;10.662;2023-12-28T02:04:21;5.17;;;3.20;;
64932;SDS011;51446;53.850;10.662;2023-12-28T02:06:52;3.17;;;2.88;;
64932;SDS011;51446;53.850;10.662;2023-12-28T02:09:23;5.27;;;2.90;;
64932;SDS011;51446;53.850;10.662;2023-12-28T02:11:48;4.00;;;2.55;;
64932;SDS011;51446;53.850;10.662;2023-12-28T02:14:14;5.07;;;2.88;;
64932;SDS011;51446;53.850;10.662;2023-12-28T02:16:41;2.90;;;2.60;;
64932;SDS011;51446;53.850;10.662;2023-12-28T02:19:25;4.82;;;3.00;;
64932;SDS011;51446;53.850;10.662;2023-12-28T02:21:58;5.90;;;2.80;;
64932;SDS011;51446;53.850;10.662;2023-12-28T02:24:24;3.83;;;2.63;;
64932;SDS011;51446;53.850;10.662;2023-12-28T02:26:49;4.83;;;2.97;;
64932;SDS011;51446;53.850;10.662;2023-12-28T02:29:15;3.17;;;2.87;;
64932;SDS011;51446;53.850;10.662;2023-12-28T02:31:42;7.03;;;3.00;;
64932;SDS011;51446;53.850;10.662;2023-12-28T02:34:18;2.97;;;2.55;;
64932;SDS011;51446;53.850;10.662;2023-12-28T02:36:47;4.05;;;2.83;;
64932;SDS011;51446;53.850;10.662;2023-12-28T02:39:14;4.70;;;2.70;;
64932;SDS011;51446;53.850;10.662;2023-12-28T02:41:42;7.32;;;3.38;;
64932;SDS011;51446;53.850;10.662;2023-12-28T02:44:08;4.60;;;3.00;;
64932;SDS011;51446;53.850;10.662;2023-12-28T02:46:34;3.50;;;3.20;;
64932;SDS011;51446;53.850;10.662;2023-12-28T02:48:59;5.60;;;3.50;;
64932;SDS011;51446;53.850;10.662;2023-12-28T02:51:24;3.30;;;3.00;;
64932;SDS011;51446;53.850;10.662;2023-12-28T02:53:50;4.57;;;3.00;;
64932;SDS011;51446;53.850;10.662;2023-12-28T02:56:15;9.40;;;3.45;;
64932;SDS011;51446;53.850;10.662;2023-12-28T02:58:41;4.45;;;3.30;;
64932;SDS011;51446;53.850;10.662;2023-12-28T03:01:06;5.60;;;3.30;;
64932;SDS011;51446;53.850;10.662;2023-12-28T03:03:31;7.18;;;3.17;;
64932;SDS011;51446;53.850;10.662;2023-12-28T03:05:56;5.80;;;3.07;;
64932;SDS011;51446;53.850;10.662;2023-12-28T03:08:22;4.30;;;3.20;;
64932;SDS011;51446;53.850;10.662;2023-12-28T03:10:47;5.20;;;3.40;;
64932;SDS011;51446;53.850;10.662;2023-12-28T03:13:12;4.40;;;3.97;;
64932;SDS011;51446;53.850;10.662;2023-12-28T03:15:37;9.13;;;4.07;;
64932;SDS011;51446;53.850;10.662;2023-12-28T03:18:03;4.37;;;3.43;;
64932;SDS011;51446;53.850;10.662;2023-12-28T03:20:28;5.97;;;3.47;;
64932;SDS011;51446;53.850;10.662;2023-12-28T03:22:53;4.07;;;3.20;;
64932;SDS011;51446;53.850;10.662;2023-12-28T03:25:18;4.83;;;3.70;;
64932;SDS011;51446;53.850;10.662;2023-12-28T03:27:44;3.87;;;3.37;;
64932;SDS011;51446;53.850;10.662;2023-12-28T03:30:09;4.50;;;3.30;;
64932;SDS011;51446;53.850;10.662;2023-12-28T03:32:35;6.03;;;3.55;;
64932;SDS011;51446;53.850;10.662;2023-12-28T03:35:00;4.27;;;3.40;;
64932;SDS011;51446;53.850;10.662;2023-12-28T03:37:26;5.20;;;3.23;;
64932;SDS011;51446;53.850;10.662;2023-12-28T03:39:51;8.73;;;3.33;;
64932;SDS011;51446;53.850;10.662;2023-12-28T03:42:16;4.23;;;3.10;;
64932;SDS011;51446;53.850;10.662;2023-12-28T03:44:41;3.87;;;2.90;;
64932;SDS011;51446;53.850;10.662;2023-12-28T03:47:07;4.73;;;3.40;;
64932;SDS011;51446;53.850;10.662;2023-12-28T03:49:32;3.90;;;3.20;;
64932;SDS011;51446;53.850;10.662;2023-12-28T03:51:57;10.83;;;3.83;;
64932;SDS011;51446;53.850;10.662;2023-12-28T03:54:23;7.27;;;3.90;;
64932;SDS011;51446;53.850;10.662;2023-12-28T03:56:48;4.77;;;3.43;;
64932;SDS011;51446;53.850;10.662;2023-12-28T03:59:13;6.13;;;3.40;;
64932;SDS011;51446;53.850;10.662;2023-12-28T04:01:41;3.63;;;3.17;;
64932;SDS011;51446;53.850;10.662;2023-12-28T04:04:06;5.70;;;3.73;;
64932;SDS011;51446;53.850;10.662;2023-12-28T04:06:32;5.17;;;3.40;;
64932;SDS011;51446;53.850;10.662;2023-12-28T04:08:57;4.83;;;3.20;;
64932;SDS011;51446;53.850;10.662;2023-12-28T04:11:22;5.87;;;3.60;;
64932;SDS011;51446;53.850;10.662;2023-12-28T04:13:47;5.23;;;3.50;;
64932;SDS011;51446;53.850;10.662;2023-12-28T04:16:13;5.43;;;3.43;;
64932;SDS011;51446;53.850;10.662;2023-12-28T04:18:39;5.93;;;3.60;;
64932;SDS011;51446;53.850;10.662;2023-12-28T04:21:09;5.43;;;3.90;;
64932;SDS011;51446;53.850;10.662;2023-12-28T04:23:35;6.10;;;3.28;;
64932;SDS011;51446;53.850;10.662;2023-12-28T04:26:01;5.17;;;3.27;;
64932;SDS011;51446;53.850;10.662;2023-12-28T04:28:27;5.18;;;3.38;;
64932;SDS011;51446;53.850;10.662;2023-12-28T04:30:53;6.47;;;3.57;;
64932;SDS011;51446;53.850;10.662;2023-12-28T04:33:18;7.77;;;3.50;;
64932;SDS011;51446;53.850;10.662;2023-12-28T04:35:46;4.75;;;3.65;;
64932;SDS011;51446;53.850;10.662;2023-12-28T04:38:12;8.10;;;3.63;;
64932;SDS011;51446;53.850;10.662;2023-12-28T04:40:37;6.30;;;3.60;;
64932;SDS011;51446;53.850;10.662;2023-12-28T04:43:02;5.97;;;3.50;;
64932;SDS011;51446;53.850;10.662;2023-12-28T04:45:28;5.38;;;3.42;;
64932;SDS011;51446;53.850;10.662;2023-12-28T04:47:53;4.83;;;3.50;;
64932;SDS011;51446;53.850;10.662;2023-12-28T04:50:18;4.83;;;3.10;;
64932;SDS011;51446;53.850;10.662;2023-12-28T04:52:44;4.63;;;3.73;;
64932;SDS011;51446;53.850;10.662;2023-12-28T04:55:09;7.07;;;3.80;;
64932;SDS011;51446;53.850;10.662;2023-12-28T04:57:34;6.73;;;3.83;;
64932;SDS011;51446;53.850;10.662;2023-12-28T04:59:59;7.37;;;3.43;;
64932;SDS011;51446;53.850;10.662;2023-12-28T05:02:25;9.53;;;3.60;;
64932;SDS011;51446;53.850;10.662;2023-12-28T05:04:50;7.13;;;3.80;;
64932;SDS011;51446;53.850;10.662;2023-12-28T05:07:15;4.57;;;3.40;;
64932;SDS011;51446;53.850;10.662;2023-12-28T05:09:40;7.13;;;3.47;;
64932;SDS011;51446;53.850;10.662;2023-12-28T05:12:06;4.77;;;3.63;;
64932;SDS011;51446;53.850;10.662;2023-12-28T05:14:31;6.33;;;3.60;;
64932;SDS011;51446;53.850;10.662;2023-12-28T05:16:56;4.90;;;3.13;;
64932;SDS011;51446;53.850;10.662;2023-12-28T05:19:21;6.87;;;4.33;;
64932;SDS011;51446;53.850;10.662;2023-12-28T05:21:47;5.73;;;3.60;;
64932;SDS011;51446;53.850;10.662;2023-12-28T05:24:12;5.63;;;3.97;;
64932;SDS011;51446;53.850;10.662;2023-12-28T05:26:37;9.77;;;3.73;;
64932;SDS011;51446;53.850;10.662;2023-12-28T05:29:03;7.17;;;3.73;;
64932;SDS011;51446;53.850;10.662;2023-12-28T05:31:28;6.87;;;3.37;;
64932;SDS011;51446;53.850;10.662;2023-12-28T05:33:53;5.07;;;4.03;;
64932;SDS011;51446;53.850;10.662;2023-12-28T05:36:19;6.40;;;3.70;;
64932;SDS011;51446;53.850;10.662;2023-12-28T05:38:44;7.97;;;3.30;;
64932;SDS011;51446;53.850;10.662;2023-12-28T05:41:09;7.17;;;3.60;;
64932;SDS011;51446;53.850;10.662;2023-12-28T05:43:35;4.50;;;3.28;;
64932;SDS011;51446;53.850;10.662;2023-12-28T05:46:01;5.37;;;3.53;;
64932;SDS011;51446;53.850;10.662;2023-12-28T05:48:26;3.57;;;3.27;;
64932;SDS011;51446;53.850;10.662;2023-12-28T05:50:51;9.57;;;3.47;;
64932;SDS011;51446;53.850;10.662;2023-12-28T05:53:16;4.67;;;3.43;;
64932;SDS011;51446;53.850;10.662;2023-12-28T05:55:42;8.87;;;3.77;;
64932;SDS011;51446;53.850;10.662;2023-12-28T05:58:08;6.35;;;3.42;;
64932;SDS011;51446;53.850;10.662;2023-12-28T06:00:33;4.47;;;3.20;;
64932;SDS011;51446;53.850;10.662;2023-12-28T06:03:00;5.17;;;3.90;;
64932;SDS011;51446;53.850;10.662;2023-12-28T06:05:26;5.63;;;3.83;;
64932;SDS011;51446;53.850;10.662;2023-12-28T06:07:51;7.70;;;3.70;;
64932;SDS011;51446;53.850;10.662;2023-12-28T06:10:17;9.60;;;3.50;;
64932;SDS011;51446;53.850;10.662;2023-12-28T06:12:42;4.87;;;3.30;;
64932;SDS011;51446;53.850;10.662;2023-12-28T06:15:07;6.50;;;3.50;;
64932;SDS011;51446;53.850;10.662;2023-12-28T06:17:33;8.85;;;3.67;;
64932;SDS011;51446;53.850;10.662;2023-12-28T06:19:58;8.47;;;3.47;;
64932;SDS011;51446;53.850;10.662;2023-12-28T06:22:23;7.43;;;3.47;;
64932;SDS011;51446;53.850;10.662;2023-12-28T06:24:52;7.53;;;3.33;;
64932;SDS011;51446;53.850;10.662;2023-12-28T06:27:17;10.38;;;3.90;;
64932;SDS011;51446;53.850;10.662;2023-12-28T06:29:43;8.60;;;3.30;;
64932;SDS011;51446;53.850;10.662;2023-12-28T06:32:08;6.67;;;3.50;;
64932;SDS011;51446;53.850;10.662;2023-12-28T06:34:34;5.87;;;3.20;;
64932;SDS011;51446;53.850;10.662;2023-12-28T06:36:59;4.40;;;3.25;;
64932;SDS011;51446;53.850;10.662;2023-12-28T06:39:26;7.57;;;3.30;;
64932;SDS011;51446;53.850;10.662;2023-12-28T06:41:51;6.73;;;3.30;;
64932;SDS011;51446;53.850;10.662;2023-12-28T06:44:16;8.60;;;3.03;;
64932;SDS011;51446;53.850;10.662;2023-12-28T06:46:42;7.50;;;2.87;;
64932;SDS011;51446;53.850;10.662;2023-12-28T06:49:07;9.07;;;3.10;;
64932;SDS011;51446;53.850;10.662;2023-12-28T06:51:32;9.47;;;3.20;;
64932;SDS011;51446;53.850;10.662;2023-12-28T06:53:58;5.97;;;3.15;;
64932;SDS011;51446;53.850;10.662;2023-12-28T06:56:24;4.70;;;2.83;;
64932;SDS011;51446;53.850;10.662;2023-12-28T06:58:49;8.75;;;3.10;;
64932;SDS011;51446;53.850;10.662;2023-12-28T07:01:14;6.57;;;3.17;;
64932;SDS011;51446;53.850;10.662;2023-12-28T07:03:40;5.47;;;2.88;;
64932;SDS011;51446;53.850;10.662;2023-12-28T07:06:05;10.03;;;2.80;;
64932;SDS011;51446;53.850;10.662;2023-12-28T07:08:31;6.90;;;3.20;;
64932;SDS011;51446;53.850;10.662;2023-12-28T07:10:56;6.17;;;3.00;;
64932;SDS011;51446;53.850;10.662;2023-12-28T07:13:22;10.88;;;3.38;;
64932;SDS011;51446;53.850;10.662;2023-12-28T07:15:47;7.10;;;2.90;;
64932;SDS011;51446;53.850;10.662;2023-12-28T07:18:13;5.03;;;2.70;;
64932;SDS011;51446;53.850;10.662;2023-12-28T07:20:38;3.10;;;2.70;;
64932;SDS011;51446;53.850;10.662;2023-12-28T07:23:03;11.03;;;3.27;;
64932;SDS011;51446;53.850;10.662;2023-12-28T07:25:28;5.40;;;3.17;;
64932;SDS011;51446;53.850;10.662;2023-12-28T07:27:54;8.55;;;2.83;;
64932;SDS011;51446;53.850;10.662;2023-12-28T07:30:19;6.93;;;3.50;;
64932;SDS011;51446;53.850;10.662;2023-12-28T07:32:44;6.85;;;3.10;;
64932;SDS011;51446;53.850;10.662;2023-12-28T07:35:10;5.65;;;3.33;;
64932;SDS011;51446;53.850;10.662;2023-12-28T07:37:35;7.67;;;3.47;;
64932;SDS011;51446;53.850;10.662;2023-12-28T07:40:01;11.03;;;5.47;;
64932;SDS011;51446;53.850;10.662;2023-12-28T07:42:28;7.63;;;3.40;;
64932;SDS011;51446;53.850;10.662;2023-12-28T07:44:53;11.32;;;3.63;;
64932;SDS011;51446;53.850;10.662;2023-12-28T07:47:19;4.93;;;3.33;;
64932;SDS011;51446;53.850;10.662;2023-12-28T07:49:44;8.07;;;3.00;;
64932;SDS011;51446;53.850;10.662;2023-12-28T07:52:09;7.00;;;2.97;;
64932;SDS011;51446;53.850;10.662;2023-12-28T07:54:35;7.70;;;2.90;;
64932;SDS011;51446;53.850;10.662;2023-12-28T07:57:00;7.90;;;3.53;;
64932;SDS011;51446;53.850;10.662;2023-12-28T07:59:25;8.80;;;2.80;;
64932;SDS011;51446;53.850;10.662;2023-12-28T08:01:50;10.23;;;3.50;;
64932;SDS011;51446;53.850;10.662;2023-12-28T08:04:16;8.67;;;3.30;;
64932;SDS011;51446;53.850;10.662;2023-12-28T08:06:41;11.03;;;3.53;;
64932;SDS011;51446;53.850;10.662;2023-12-28T08:09:06;10.63;;;3.20;;
64932;SDS011;51446;53.850;10.662;2023-12-28T08:11:32;7.18;;;2.72;;
64932;SDS011;51446;53.850;10.662;2023-12-28T08:13:57;10.03;;;3.50;;
64932;SDS011;51446;53.850;10.662;2023-12-28T08:16:22;7.93;;;2.90;;
64932;SDS011;51446;53.850;10.662;2023-12-28T08:18:47;6.53;;;3.13;;
64932;SDS011;51446;53.850;10.662;2023-12-28T08:21:13;8.40;;;3.00;;
64932;SDS011;51446;53.850;10.662;2023-12-28T08:23:38;8.10;;;3.00;;
64932;SDS011;51446;53.850;10.662;2023-12-28T08:26:03;7.47;;;3.00;;
64932;SDS011;51446;53.850;10.662;2023-12-28T08:28:29;9.57;;;3.10;;
64932;SDS011;51446;53.850;10.662;2023-12-28T08:30:55;7.50;;;3.70;;
64932;SDS011;51446;53.850;10.662;2023-12-28T08:33:21;11.02;;;3.03;;
64932;SDS011;51446;53.850;10.662;2023-12-28T08:35:46;9.13;;;3.20;;
64932;SDS011;51446;53.850;10.662;2023-12-28T08:38:12;12.63;;;3.33;;
64932;SDS011;51446;53.850;10.662;2023-12-28T08:40:37;9.37;;;2.40;;
64932;SDS011;51446;53.850;10.662;2023-12-28T08:43:02;7.27;;;2.77;;
64932;SDS011;51446;53.850;10.662;2023-12-28T08:45:29;8.20;;;2.70;;
64932;SDS011;51446;53.850;10.662;2023-12-28T08:47:54;9.73;;;2.60;;
64932;SDS011;51446;53.850;10.662;2023-12-28T08:50:19;9.37;;;3.33;;
64932;SDS011;51446;53.850;10.662;2023-12-28T08:52:45;9.53;;;2.57;;
64932;SDS011;51446;53.850;10.662;2023-12-28T08:55:10;11.00;;;4.40;;
64932;SDS011;51446;53.850;10.662;2023-12-28T08:57:35;11.23;;;2.97;;
64932;SDS011;51446;53.850;10.662;2023-12-28T09:00:01;7.67;;;2.80;;
64932;SDS011;51446;53.850;10.662;2023-12-28T09:02:28;6.97;;;2.38;;
64932;SDS011;51446;53.850;10.662;2023-12-28T09:04:53;10.18;;;2.38;;
64932;SDS011;51446;53.850;10.662;2023-12-28T09:07:19;7.87;;;2.40;;
64932;SDS011;51446;53.850;10.662;2023-12-28T09:09:44;7.83;;;2.60;;
64932;SDS011;51446;53.850;10.662;2023-12-28T09:12:10;7.25;;;2.60;;
64932;SDS011;51446;53.850;10.662;2023-12-28T09:14:35;7.97;;;2.50;;
64932;SDS011;51446;53.850;10.662;2023-12-28T09:17:01;4.77;;;2.30;;
64932;SDS011;51446;53.850;10.662;2023-12-28T09:19:26;8.67;;;2.67;;
64932;SDS011;51446;53.850;10.662;2023-12-28T09:21:51;10.10;;;2.80;;
64932;SDS011;51446;53.850;10.662;2023-12-28T09:24:16;9.30;;;2.50;;
64932;SDS011;51446;53.850;10.662;2023-12-28T09:26:43;8.98;;;2.50;;
64932;SDS011;51446;53.850;10.662;2023-12-28T09:29:08;6.80;;;2.37;;
64932;SDS011;51446;53.850;10.662;2023-12-28T09:31:34;15.30;;;3.17;;
64932;SDS011;51446;53.850;10.662;2023-12-28T09:33:59;7.47;;;2.60;;
64932;SDS011;51446;53.850;10.662;2023-12-28T09:36:24;5.63;;;2.13;;
64932;SDS011;51446;53.850;10.662;2023-12-28T09:38:49;9.30;;;2.67;;
64932;SDS011;51446;53.850;10.662;2023-12-28T09:41:16;7.85;;;2.53;;
64932;SDS011;51446;53.850;10.662;2023-12-28T09:43:51;5.18;;;2.92;;
64932;SDS011;51446;53.850;10.662;2023-12-28T09:46:19;9.82;;;2.40;;
64932;SDS011;51446;53.850;10.662;2023-12-28T09:48:44;5.70;;;2.30;;
64932;SDS011;51446;53.850;10.662;2023-12-28T09:51:10;6.40;;;2.43;;
64932;SDS011;51446;53.850;10.662;2023-12-28T09:53:35;6.70;;;2.00;;
64932;SDS011;51446;53.850;10.662;2023-12-28T09:56:01;11.20;;;2.53;;
64932;SDS011;51446;53.850;10.662;2023-12-28T09:58:27;9.53;;;2.63;;
64932;SDS011;51446;53.850;10.662;2023-12-28T10:00:54;6.57;;;2.47;;
64932;SDS011;51446;53.850;10.662;2023-12-28T10:03:21;5.38;;;2.13;;
64932;SDS011;51446;53.850;10.662;2023-12-28T10:05:47;7.80;;;2.40;;
64932;SDS011;51446;53.850;10.662;2023-12-28T10:08:12;5.60;;;2.20;;
64932;SDS011;51446;53.850;10.662;2023-12-28T10:10:41;7.45;;;2.13;;
64932;SDS011;51446;53.850;10.662;2023-12-28T10:13:07;6.93;;;2.20;;
64932;SDS011;51446;53.850;10.662;2023-12-28T10:15:34;7.07;;;2.10;;
64932;SDS011;51446;53.850;10.662;2023-12-28T10:18:00;5.68;;;2.70;;
64932;SDS011;51446;53.850;10.662;2023-12-28T10:20:28;6.27;;;2.60;;
64932;SDS011;51446;53.850;10.662;2023-12-28T10:22:53;19.27;;;3.37;;
64932;SDS011;51446;53.850;10.662;2023-12-28T10:25:19;6.90;;;2.30;;
64932;SDS011;51446;53.850;10.662;2023-12-28T10:27:44;10.98;;;2.50;;
64932;SDS011;51446;53.850;10.662;2023-12-28T10:30:09;8.30;;;2.40;;
64932;SDS011;51446;53.850;10.662;2023-12-28T10:32:36;7.80;;;2.60;;
64932;SDS011;51446;53.850;10.662;2023-12-28T10:35:05;9.18;;;2.40;;
64932;SDS011;51446;53.850;10.662;2023-12-28T10:37:31;11.17;;;2.73;;
64932;SDS011;51446;53.850;10.662;2023-12-28T10:39:57;11.35;;;2.70;;
64932;SDS011;51446;53.850;10.662;2023-12-28T10:42:28;7.43;;;2.08;;
64932;SDS011;51446;53.850;10.662;2023-12-28T10:44:57;4.95;;;2.08;;
64932;SDS011;51446;53.850;10.662;2023-12-28T10:47:37;6.13;;;2.25;;
64932;SDS011;51446;53.850;10.662;2023-12-28T10:50:04;6.25;;;2.30;;
64932;SDS011;51446;53.850;10.662;2023-12-28T10:52:31;6.13;;;2.00;;
64932;SDS011;51446;53.850;10.662;2023-12-28T10:55:05;7.07;;;2.20;;
64932;SDS011;51446;53.850;10.662;2023-12-28T10:57:58;15.70;;;2.53;;
64932;SDS011;51446;53.850;10.662;2023-12-28T11:00:30;6.95;;;2.20;;
64932;SDS011;51446;53.850;10.662;2023-12-28T11:03:02;8.63;;;2.10;;
64932;SDS011;51446;53.850;10.662;2023-12-28T11:05:28;9.63;;;2.30;;
64932;SDS011;51446;53.850;10.662;2023-12-28T11:07:54;11.70;;;2.35;;
64932;SDS011;51446;53.850;10.662;2023-12-28T11:10:23;11.18;;;2.75;;
64932;SDS011;51446;53.850;10.662;2023-12-28T11:12:53;8.88;;;2.20;;
64932;SDS011;51446;53.850;10.662;2023-12-28T11:15:19;8.38;;;2.42;;
64932;SDS011;51446;53.850;10.662;2023-12-28T11:17:44;11.25;;;2.28;;
64932;SDS011;51446;53.850;10.662;2023-12-28T11:20:09;9.10;;;2.10;;
64932;SDS011;51446;53.850;10.662;2023-12-28T11:22:36;12.05;;;2.10;;
64932;SDS011;51446;53.850;10.662;2023-12-28T11:25:03;8.02;;;2.17;;
64932;SDS011;51446;53.850;10.662;2023-12-28T11:27:35;10.73;;;2.80;;
64932;SDS011;51446;53.850;10.662;2023-12-28T11:30:01;9.93;;;2.20;;
64932;SDS011;51446;53.850;10.662;2023-12-28T11:32:31;11.68;;;2.50;;
64932;SDS011;51446;53.850;10.662;2023-12-28T11:34:58;9.35;;;2.40;;
64932;SDS011;51446;53.850;10.662;2023-12-28T11:37:25;11.87;;;2.47;;
64932;SDS011;51446;53.850;10.662;2023-12-28T11:39:51;10.43;;;2.75;;
64932;SDS011;51446;53.850;10.662;2023-12-28T11:42:20;8.80;;;2.30;;
64932;SDS011;51446;53.850;10.662;2023-12-28T11:44:47;12.48;;;2.55;;
64932;SDS011;51446;53.850;10.662;2023-12-28T11:47:23;14.60;;;2.58;;
64932;SDS011;51446;53.850;10.662;2023-12-28T11:49:49;11.18;;;2.50;;
64932;SDS011;51446;53.850;10.662;2023-12-28T11:52:26;11.02;;;2.53;;
64932;SDS011;51446;53.850;10.662;2023-12-28T11:54:52;12.38;;;3.28;;
64932;SDS011;51446;53.850;10.662;2023-12-28T11:57:18;8.17;;;2.50;;
64932;SDS011;51446;53.850;10.662;2023-12-28T11:59:43;8.23;;;2.15;;
64932;SDS011;51446;53.850;10.662;2023-12-28T12:02:09;10.13;;;2.50;;
64932;SDS011;51446;53.850;10.662;2023-12-28T12:04:34;13.80;;;2.57;;
64932;SDS011;51446;53.850;10.662;2023-12-28T12:07:03;11.47;;;3.20;;
64932;SDS011;51446;53.850;10.662;2023-12-28T12:09:29;11.23;;;2.92;;
64932;SDS011;51446;53.850;10.662;2023-12-28T12:11:59;8.85;;;2.35;;
64932;SDS011;51446;53.850;10.662;2023-12-28T12:14:24;9.73;;;2.70;;
64932;SDS011;51446;53.850;10.662;2023-12-28T12:16:49;13.10;;;3.17;;
64932;SDS011;51446;53.850;10.662;2023-12-28T12:19:15;17.53;;;3.17;;
64932;SDS011;51446;53.850;10.662;2023-12-28T12:21:40;11.17;;;3.30;;
64932;SDS011;51446;53.850;10.662;2023-12-28T12:24:05;13.20;;;2.63;;
64932;SDS011;51446;53.850;10.662;2023-12-28T12:26:31;7.77;;;2.30;;
64932;SDS011;51446;53.850;10.662;2023-12-28T12:28:56;10.67;;;2.90;;
64932;SDS011;51446;53.850;10.662;2023-12-28T12:31:22;12.95;;;3.50;;
64932;SDS011;51446;53.850;10.662;2023-12-28T12:33:49;12.38;;;2.70;;
64932;SDS011;51446;53.850;10.662;2023-12-28T12:36:15;6.90;;;2.90;;
64932;SDS011;51446;53.850;10.662;2023-12-28T12:38:40;15.60;;;3.20;;
64932;SDS011;51446;53.850;10.662;2023-12-28T12:41:06;12.53;;;3.00;;
64932;SDS011;51446;53.850;10.662;2023-12-28T12:43:32;13.77;;;2.97;;
64932;SDS011;51446;53.850;10.662;2023-12-28T12:45:57;13.13;;;2.90;;
64932;SDS011;51446;53.850;10.662;2023-12-28T12:48:22;18.10;;;2.87;;
64932;SDS011;51446;53.850;10.662;2023-12-28T12:50:48;14.63;;;2.90;;
64932;SDS011;51446;53.850;10.662;2023-12-28T12:53:13;13.90;;;3.70;;
64932;SDS011;51446;53.850;10.662;2023-12-28T12:55:38;12.87;;;2.97;;
64932;SDS011;51446;53.850;10.662;2023-12-28T12:58:05;15.95;;;2.97;;
64932;SDS011;51446;53.850;10.662;2023-12-28T13:00:30;14.45;;;2.85;;
64932;SDS011;51446;53.850;10.662;2023-12-28T13:02:58;12.13;;;2.50;;
64932;SDS011;51446;53.850;10.662;2023-12-28T13:05:24;12.20;;;2.42;;
64932;SDS011;51446;53.850;10.662;2023-12-28T13:07:50;19.80;;;3.90;;
64932;SDS011;51446;53.850;10.662;2023-12-28T13:10:16;13.50;;;2.40;;
64932;SDS011;51446;53.850;10.662;2023-12-28T13:12:41;14.40;;;3.07;;
64932;SDS011;51446;53.850;10.662;2023-12-28T13:15:06;18.73;;;3.33;;
64932;SDS011;51446;53.850;10.662;2023-12-28T13:17:34;14.52;;;2.78;;
64932;SDS011;51446;53.850;10.662;2023-12-28T13:19:59;14.47;;;3.73;;
64932;SDS011;51446;53.850;10.662;2023-12-28T13:22:24;13.40;;;2.90;;
64932;SDS011;51446;53.850;10.662;2023-12-28T13:24:51;9.70;;;2.60;;
64932;SDS011;51446;53.850;10.662;2023-12-28T13:27:16;14.77;;;2.87;;
64932;SDS011;51446;53.850;10.662;2023-12-28T13:29:41;11.03;;;2.60;;
64932;SDS011;51446;53.850;10.662;2023-12-28T13:32:08;14.88;;;2.88;;
64932;SDS011;51446;53.850;10.662;2023-12-28T13:34:33;10.57;;;2.67;;
64932;SDS011;51446;53.850;10.662;2023-12-28T13:36:59;12.87;;;2.60;;
64932;SDS011;51446;53.850;10.662;2023-12-28T13:39:26;15.60;;;2.95;;
64932;SDS011;51446;53.850;10.662;2023-12-28T13:41:53;11.80;;;2.78;;
64932;SDS011;51446;53.850;10.662;2023-12-28T13:44:19;13.23;;;2.47;;
64932;SDS011;51446;53.850;10.662;2023-12-28T13:46:44;15.45;;;2.72;;
64932;SDS011;51446;53.850;10.662;2023-12-28T13:49:10;13.40;;;2.57;;
64932;SDS011;51446;53.850;10.662;2023-12-28T13:51:35;12.83;;;2.53;;
64932;SDS011;51446;53.850;10.662;2023-12-28T13:54:01;14.00;;;3.30;;
64932;SDS011;51446;53.850;10.662;2023-12-28T13:56:26;13.73;;;3.00;;
64932;SDS011;51446;53.850;10.662;2023-12-28T13:58:51;13.45;;;2.80;;
64932;SDS011;51446;53.850;10.662;2023-12-28T14:01:17;15.23;;;2.93;;
64932;SDS011;51446;53.850;10.662;2023-12-28T14:03:42;13.87;;;3.20;;
64932;SDS011;51446;53.850;10.662;2023-12-28T14:06:09;9.05;;;2.47;;
64932;SDS011;51446;53.850;10.662;2023-12-28T14:08:34;12.97;;;2.90;;
64932;SDS011;51446;53.850;10.662;2023-12-28T14:10:59;13.43;;;2.80;;
64932;SDS011;51446;53.850;10.662;2023-12-28T14:13:24;18.70;;;3.00;;
64932;SDS011;51446;53.850;10.662;2023-12-28T14:15:50;10.82;;;2.58;;
64932;SDS011;51446;53.850;10.662;2023-12-28T14:18:16;15.87;;;2.67;;
64932;SDS011;51446;53.850;10.662;2023-12-28T14:20:41;12.57;;;2.60;;
64932;SDS011;51446;53.850;10.662;2023-12-28T14:23:06;11.07;;;3.07;;